Time;durP1;ratioP1;P1;durP2;ratioP2;P2;SDS_P1;SDS_P2;PMS_P1;PMS_P2;Temp;Humidity;BMP_temperature;BMP_pressure;BME280_temperature;BME280_humidity;BME280_pressure;Samples;Min_cycle;Max_cycle;Signal;HPM_P1;HPM_P2
2021/12/02 00:01:04;;;;;;;2.70;1.98;;;;;;;;;;5058371;28;20079;-89
2021/12/02 00:03:30;;;;;;;3.15;2.00;;;;;;;;;;5058035;28;20032;-89
2021/12/02 00:05:55;;;;;;;3.40;2.30;;;;;;;;;;5040688;28;20033;-89
2021/12/02 00:08:20;;;;;;;3.38;2.60;;;;;;;;;;5057457;28;20480;-88
2021/12/02 00:10:46;;;;;;;3.22;2.50;;;;;;;;;;5058493;28;20822;-89
2021/12/02 00:13:12;;;;;;;3.65;2.47;;;;;;;;;;5040416;28;20112;-89
2021/12/02 00:16:22;;;;;;;3.72;2.50;;;;;;;;;;5058052;28;20032;-89
2021/12/02 00:21:03;;;;;;;3.92;2.42;;;;;;;;;;5058568;28;20036;-89
2021/12/02 00:23:29;;;;;;;4.63;2.45;;;;;;;;;;5057710;28;20037;-89
2021/12/02 00:25:55;;;;;;;5.13;2.72;;;;;;;;;;5056950;28;20041;-89
2021/12/02 00:28:20;;;;;;;3.33;2.40;;;;;;;;;;5041768;28;20039;-92
2021/12/02 00:30:45;;;;;;;4.13;2.83;;;;;;;;;;5041224;28;20064;-89
2021/12/02 00:33:11;;;;;;;4.13;2.40;;;;;;;;;;5059211;28;20057;-90
2021/12/02 00:35:36;;;;;;;3.70;2.63;;;;;;;;;;5058216;28;20068;-89
2021/12/02 00:38:01;;;;;;;5.43;2.67;;;;;;;;;;5058773;28;20036;-89
2021/12/02 00:40:27;;;;;;;4.10;2.67;;;;;;;;;;5058465;28;20037;-88
2021/12/02 00:42:52;;;;;;;4.38;2.75;;;;;;;;;;5057938;28;20037;-89
2021/12/02 00:45:17;;;;;;;3.55;2.83;;;;;;;;;;5057175;28;20033;-89
2021/12/02 00:47:43;;;;;;;3.80;2.60;;;;;;;;;;5057031;28;20036;-89
2021/12/02 00:50:08;;;;;;;4.15;3.00;;;;;;;;;;5039289;28;20044;-89
2021/12/02 00:52:33;;;;;;;4.18;2.80;;;;;;;;;;5058068;28;20021;-89
2021/12/02 00:54:59;;;;;;;4.57;2.55;;;;;;;;;;5057315;28;20039;-88
2021/12/02 00:57:24;;;;;;;3.58;2.50;;;;;;;;;;5056262;28;20044;-89
2021/12/02 00:59:49;;;;;;;4.50;2.92;;;;;;;;;;5039522;28;20028;-89
2021/12/02 01:02:15;;;;;;;5.00;2.63;;;;;;;;;;5056718;28;20040;-89
2021/12/02 01:04:40;;;;;;;3.70;2.67;;;;;;;;;;5056017;28;20037;-88
2021/12/02 01:07:05;;;;;;;4.45;2.58;;;;;;;;;;5056603;28;20127;-89
2021/12/02 01:09:31;;;;;;;3.80;2.53;;;;;;;;;;5056361;28;20028;-89
2021/12/02 01:11:57;;;;;;;4.75;2.80;;;;;;;;;;5055995;28;20048;-89
2021/12/02 01:14:23;;;;;;;3.97;2.60;;;;;;;;;;5039347;28;20020;-89
2021/12/02 01:16:48;;;;;;;4.15;2.83;;;;;;;;;;5055811;28;20033;-88
2021/12/02 01:19:14;;;;;;;3.70;2.85;;;;;;;;;;5056956;28;20029;-89
2021/12/02 01:21:39;;;;;;;4.35;3.00;;;;;;;;;;5056387;28;20037;-89
2021/12/02 01:24:04;;;;;;;4.55;2.88;;;;;;;;;;5056388;28;20033;-89
2021/12/02 01:26:30;;;;;;;5.78;3.00;;;;;;;;;;5055522;28;20041;-89
2021/12/02 01:28:55;;;;;;;4.68;2.88;;;;;;;;;;5055886;28;20036;-88
2021/12/02 01:31:21;;;;;;;4.28;2.80;;;;;;;;;;5038904;28;20033;-89
2021/12/02 01:33:47;;;;;;;3.72;2.63;;;;;;;;;;5055026;28;20033;-89
2021/12/02 01:36:12;;;;;;;4.35;2.90;;;;;;;;;;5038629;28;20040;-89
2021/12/02 01:38:37;;;;;;;3.33;2.30;;;;;;;;;;5056724;28;20075;-89
2021/12/02 01:41:03;;;;;;;3.97;2.78;;;;;;;;;;5055745;28;20033;-89
2021/12/02 01:43:28;;;;;;;4.85;2.80;;;;;;;;;;5039041;28;20082;-89
2021/12/02 01:45:53;;;;;;;4.05;2.80;;;;;;;;;;5060952;28;20033;-89
2021/12/02 01:48:19;;;;;;;3.38;2.58;;;;;;;;;;5055205;28;20033;-89
2021/12/02 01:50:44;;;;;;;4.25;2.90;;;;;;;;;;5039499;28;20388;-89
2021/12/02 01:53:09;;;;;;;3.78;2.45;;;;;;;;;;5056035;28;20368;-88
2021/12/02 01:55:35;;;;;;;3.72;2.72;;;;;;;;;;5039033;28;20060;-89
2021/12/02 01:58:01;;;;;;;4.05;2.70;;;;;;;;;;5039001;28;20511;-89
2021/12/02 02:00:26;;;;;;;5.22;2.30;;;;;;;;;;5056588;28;20104;-89
2021/12/02 02:02:51;;;;;;;3.80;2.50;;;;;;;;;;5055971;28;20455;-89
2021/12/02 02:05:17;;;;;;;3.75;2.63;;;;;;;;;;5055317;28;20476;-89
2021/12/02 02:07:42;;;;;;;3.70;2.53;;;;;;;;;;5038943;28;20532;-89
2021/12/02 02:10:07;;;;;;;5.55;3.00;;;;;;;;;;5055924;28;20028;-89
2021/12/02 02:12:33;;;;;;;4.47;2.80;;;;;;;;;;5056085;28;20037;-89
2021/12/02 02:14:58;;;;;;;4.53;2.75;;;;;;;;;;5055031;28;20098;-89
2021/12/02 02:17:30;;;;;;;4.28;2.60;;;;;;;;;;5038081;28;20489;-88
2021/12/02 02:19:55;;;;;;;4.32;2.45;;;;;;;;;;5054934;28;20032;-89
2021/12/02 02:22:22;;;;;;;4.10;2.90;;;;;;;;;;5038757;28;20029;-89
2021/12/02 02:24:48;;;;;;;3.50;2.63;;;;;;;;;;5038168;28;20392;-87
2021/12/02 02:27:13;;;;;;;4.22;2.65;;;;;;;;;;5055669;28;20044;-89
2021/12/02 02:29:39;;;;;;;3.88;2.88;;;;;;;;;;5056509;28;20036;-89
2021/12/02 02:32:04;;;;;;;3.85;2.70;;;;;;;;;;5056630;28;20043;-89
2021/12/02 02:34:29;;;;;;;3.90;2.40;;;;;;;;;;5054310;28;20033;-88
2021/12/02 02:36:56;;;;;;;3.58;2.20;;;;;;;;;;5054638;28;20037;-89
2021/12/02 02:39:22;;;;;;;3.95;2.55;;;;;;;;;;5037836;28;20435;-89
2021/12/02 02:41:54;;;;;;;4.47;2.70;;;;;;;;;;5038399;28;20087;-89
2021/12/02 02:44:19;;;;;;;4.43;2.60;;;;;;;;;;5054902;28;20040;-88
2021/12/02 02:46:45;;;;;;;4.22;2.47;;;;;;;;;;5054614;28;20017;-89
2021/12/02 02:49:10;;;;;;;4.20;2.63;;;;;;;;;;5054163;28;20108;-89
2021/12/02 02:51:36;;;;;;;4.22;2.60;;;;;;;;;;5053480;28;20094;-89
2021/12/02 02:54:04;;;;;;;3.13;2.15;;;;;;;;;;5054203;28;20017;-89
2021/12/02 02:56:31;;;;;;;4.00;2.30;;;;;;;;;;5037529;28;20473;-89
2021/12/02 02:59:12;;;;;;;3.20;2.30;;;;;;;;;;5054472;28;20029;-89
2021/12/02 03:07:20;;;;;;;4.72;2.35;;;;;;;;;;5053905;28;20041;-89
2021/12/02 03:12:05;;;;;;;3.88;2.60;;;;;;;;;;5053967;28;20040;-89
2021/12/02 03:14:48;;;;;;;4.22;2.78;;;;;;;;;;5054503;28;20108;-89
2021/12/02 03:17:13;;;;;;;3.60;2.10;;;;;;;;;;5054057;28;20044;-89
2021/12/02 03:19:39;;;;;;;4.30;2.63;;;;;;;;;;5055280;28;20029;-89
2021/12/02 03:22:04;;;;;;;3.78;2.53;;;;;;;;;;5053563;28;20032;-89
2021/12/02 03:24:29;;;;;;;4.28;2.50;;;;;;;;;;5053779;28;20045;-89
2021/12/02 03:26:55;;;;;;;4.55;2.70;;;;;;;;;;5054757;28;20036;-89
2021/12/02 03:29:20;;;;;;;4.70;2.55;;;;;;;;;;5053927;28;20124;-89
2021/12/02 03:31:45;;;;;;;3.47;2.45;;;;;;;;;;5054058;28;20045;-89
2021/12/02 03:34:11;;;;;;;3.20;2.30;;;;;;;;;;5055334;28;20044;-89
2021/12/02 03:36:36;;;;;;;3.13;2.30;;;;;;;;;;5055075;28;20036;-89
2021/12/02 03:39:01;;;;;;;3.65;2.40;;;;;;;;;;5053422;28;20037;-89
2021/12/02 03:41:27;;;;;;;3.75;2.40;;;;;;;;;;5054975;28;20025;-89
2021/12/02 03:43:52;;;;;;;4.20;2.47;;;;;;;;;;5037684;28;20039;-89
2021/12/02 03:46:18;;;;;;;3.40;2.50;;;;;;;;;;5037916;28;20035;-89
2021/12/02 03:48:43;;;;;;;3.63;2.33;;;;;;;;;;5053665;28;20032;-89
2021/12/02 03:51:08;;;;;;;3.70;2.60;;;;;;;;;;5053909;28;20036;-89
2021/12/02 03:53:34;;;;;;;3.10;2.42;;;;;;;;;;5036656;28;20029;-89
2021/12/02 03:56:00;;;;;;;3.58;2.40;;;;;;;;;;5053380;28;20029;-89
2021/12/02 03:58:26;;;;;;;4.47;2.50;;;;;;;;;;5037422;28;20037;-89
2021/12/02 04:00:51;;;;;;;3.63;2.42;;;;;;;;;;5054369;28;20036;-89
2021/12/02 04:03:17;;;;;;;3.78;2.20;;;;;;;;;;5056458;28;20033;-89
2021/12/02 04:05:42;;;;;;;3.40;2.35;;;;;;;;;;5037238;28;20037;-89
2021/12/02 04:08:11;;;;;;;3.42;2.65;;;;;;;;;;5053112;28;20033;-89
2021/12/02 04:10:36;;;;;;;3.50;2.70;;;;;;;;;;5053901;28;20033;-89
2021/12/02 04:13:23;;;;;;;4.30;2.92;;;;;;;;;;5053719;28;20078;-89
2021/12/02 04:15:56;;;;;;;3.42;2.60;;;;;;;;;;5037205;28;20511;-89
2021/12/02 04:18:22;;;;;;;3.58;2.70;;;;;;;;;;5054226;28;20037;-89
2021/12/02 04:20:48;;;;;;;4.93;3.10;;;;;;;;;;5055452;28;20408;-89
2021/12/02 04:23:13;;;;;;;4.50;2.83;;;;;;;;;;5053797;28;20045;-89
2021/12/02 04:25:39;;;;;;;4.30;3.15;;;;;;;;;;5053331;28;20051;-89
2021/12/02 04:28:04;;;;;;;5.30;3.30;;;;;;;;;;5053532;28;20033;-89
2021/12/02 04:30:29;;;;;;;4.20;2.88;;;;;;;;;;5054749;28;20457;-89
2021/12/02 04:32:56;;;;;;;4.00;2.80;;;;;;;;;;5055665;28;20059;-89
2021/12/02 04:35:21;;;;;;;4.03;2.80;;;;;;;;;;5057921;28;20370;-89
2021/12/02 04:37:51;;;;;;;4.68;2.78;;;;;;;;;;5042340;28;20559;-89
2021/12/02 04:40:16;;;;;;;3.80;2.60;;;;;;;;;;5059654;28;20029;-90
2021/12/02 04:42:41;;;;;;;3.30;2.53;;;;;;;;;;5041129;28;20039;-89
2021/12/02 04:45:07;;;;;;;3.47;2.58;;;;;;;;;;5058255;28;20055;-89
2021/12/02 04:47:32;;;;;;;3.20;2.42;;;;;;;;;;5058606;28;20025;-89
2021/12/02 04:49:57;;;;;;;3.47;2.60;;;;;;;;;;5041048;28;20033;-89
2021/12/02 04:52:23;;;;;;;3.20;2.33;;;;;;;;;;5057264;28;20040;-89
2021/12/02 04:54:48;;;;;;;4.10;2.50;;;;;;;;;;5056826;28;20024;-89
2021/12/02 04:57:13;;;;;;;3.50;2.70;;;;;;;;;;5058047;28;20049;-89
2021/12/02 04:59:39;;;;;;;4.45;2.70;;;;;;;;;;5040162;28;20044;-89
2021/12/02 05:02:04;;;;;;;4.25;2.60;;;;;;;;;;5060223;28;20041;-89
2021/12/02 05:04:29;;;;;;;3.42;2.60;;;;;;;;;;5061404;28;20044;-89
2021/12/02 05:06:55;;;;;;;3.95;2.55;;;;;;;;;;5057133;28;20044;-89
2021/12/02 05:09:20;;;;;;;3.83;2.80;;;;;;;;;;5058716;28;20039;-89
2021/12/02 05:11:46;;;;;;;3.70;2.53;;;;;;;;;;5058657;28;20420;-89
2021/12/02 05:14:11;;;;;;;4.88;2.50;;;;;;;;;;5056785;28;20377;-89
2021/12/02 05:16:36;;;;;;;4.45;2.50;;;;;;;;;;5057188;28;20083;-88
2021/12/02 05:19:02;;;;;;;3.30;2.22;;;;;;;;;;5040709;28;20037;-89
2021/12/02 05:21:27;;;;;;;3.72;2.67;;;;;;;;;;5040564;28;20037;-89
2021/12/02 05:23:55;;;;;;;4.28;2.92;;;;;;;;;;5057137;28;20040;-89
2021/12/02 05:26:21;;;;;;;3.55;2.55;;;;;;;;;;5056921;28;20110;-89
2021/12/02 05:28:46;;;;;;;5.10;3.03;;;;;;;;;;5056529;28;20484;-89
2021/12/02 05:31:11;;;;;;;4.30;2.75;;;;;;;;;;5057145;28;20511;-89
2021/12/02 05:33:37;;;;;;;4.43;3.13;;;;;;;;;;5056422;28;20118;-89
2021/12/02 05:36:02;;;;;;;3.60;2.75;;;;;;;;;;5057149;28;20127;-89
2021/12/02 05:38:27;;;;;;;3.95;2.60;;;;;;;;;;5039485;28;20064;-89
2021/12/02 05:40:53;;;;;;;3.88;2.70;;;;;;;;;;5039672;28;20036;-89
2021/12/02 05:43:18;;;;;;;4.55;2.80;;;;;;;;;;5056752;28;20111;-89
2021/12/02 05:45:43;;;;;;;3.55;2.65;;;;;;;;;;5038208;28;20074;-88
2021/12/02 05:48:09;;;;;;;5.47;3.60;;;;;;;;;;5039191;28;20036;-89
2021/12/02 05:50:34;;;;;;;4.70;3.15;;;;;;;;;;5057125;28;20388;-88
2021/12/02 05:52:59;;;;;;;2.47;1.50;;;;;;;;;;5057272;28;20472;-89
2021/12/02 05:55:24;;;;;;;3.13;1.90;;;;;;;;;;5056137;28;20056;-89
2021/12/02 05:57:50;;;;;;;3.88;1.92;;;;;;;;;;5055579;28;20457;-89
2021/12/02 06:00:15;;;;;;;3.47;1.60;;;;;;;;;;5055475;28;20037;-89
2021/12/02 06:02:42;;;;;;;2.00;1.40;;;;;;;;;;5055741;28;20558;-89
2021/12/02 06:05:07;;;;;;;1.85;1.30;;;;;;;;;;5055814;28;20036;-90
2021/12/02 06:07:33;;;;;;;3.45;1.20;;;;;;;;;;5055312;28;20051;-88
2021/12/02 06:09:58;;;;;;;1.17;0.98;;;;;;;;;;5038923;28;20064;-90
2021/12/02 06:12:23;;;;;;;1.13;0.90;;;;;;;;;;5056526;28;20075;-89
2021/12/02 06:14:49;;;;;;;1.80;0.88;;;;;;;;;;5037578;28;20128;-88
2021/12/02 06:17:14;;;;;;;1.00;0.90;;;;;;;;;;5055094;28;20063;-89
2021/12/02 06:19:39;;;;;;;1.48;0.90;;;;;;;;;;5055844;28;20032;-89
2021/12/02 06:22:08;;;;;;;2.03;0.95;;;;;;;;;;5055030;28;20488;-90
2021/12/02 06:24:43;;;;;;;2.13;0.80;;;;;;;;;;5054730;28;20067;-89
2021/12/02 06:27:08;;;;;;;1.30;0.80;;;;;;;;;;5056117;28;20033;-89
2021/12/02 06:29:34;;;;;;;2.00;1.00;;;;;;;;;;5038569;28;20473;-89
2021/12/02 06:31:59;;;;;;;1.92;1.00;;;;;;;;;;5053897;28;20056;-89
2021/12/02 06:34:24;;;;;;;1.85;0.90;;;;;;;;;;5054883;28;20083;-89
2021/12/02 06:36:49;;;;;;;5.88;2.50;;;;;;;;;;5054496;28;20117;-89
2021/12/02 06:39:15;;;;;;;6.70;3.25;;;;;;;;;;5054492;28;20029;-89
2021/12/02 06:41:40;;;;;;;29.17;13.65;;;;;;;;;;5054416;28;20032;-89
2021/12/02 06:44:06;;;;;;;8.43;4.45;;;;;;;;;;5037959;28;20041;-89
2021/12/02 06:46:31;;;;;;;8.43;4.10;;;;;;;;;;5054902;28;20036;-88
2021/12/02 06:48:56;;;;;;;4.85;2.60;;;;;;;;;;5054413;28;20071;-89
2021/12/02 06:51:22;;;;;;;4.75;1.88;;;;;;;;;;5054547;28;20041;-89
2021/12/02 06:53:53;;;;;;;20.77;9.65;;;;;;;;;;5055348;28;20029;-89
2021/12/02 06:56:18;;;;;;;12.55;6.78;;;;;;;;;;5053024;28;20041;-89
2021/12/02 06:58:44;;;;;;;14.50;7.15;;;;;;;;;;5054069;28;20473;-89
2021/12/02 07:01:09;;;;;;;13.30;6.43;;;;;;;;;;5054125;28;20057;-88
2021/12/02 07:03:35;;;;;;;19.13;7.97;;;;;;;;;;5054198;28;20040;-89
2021/12/02 07:06:00;;;;;;;24.85;12.13;;;;;;;;;;5037251;28;20033;-90
2021/12/02 07:08:26;;;;;;;24.58;12.55;;;;;;;;;;5055501;28;20449;-89
2021/12/02 07:10:51;;;;;;;44.15;24.08;;;;;;;;;;5055698;28;20086;-89
2021/12/02 07:13:17;;;;;;;12.55;5.50;;;;;;;;;;5054252;28;20029;-89
2021/12/02 07:15:51;;;;;;;7.13;3.25;;;;;;;;;;5036925;28;20048;-89
2021/12/02 07:18:20;;;;;;;5.38;3.33;;;;;;;;;;5038223;28;20032;-89
2021/12/02 07:20:51;;;;;;;5.13;3.20;;;;;;;;;;5053785;28;20029;-90
2021/12/02 07:23:22;;;;;;;;;;;;;;;;;;5039164;28;20044;-89
2021/12/02 07:25:51;;;;;;;5.28;2.75;;;;;;;;;;5053430;28;19912;-88
2021/12/02 07:28:22;;;;;;;4.40;2.38;;;;;;;;;;5053634;28;20147;-88
2021/12/02 07:30:47;;;;;;;4.40;1.85;;;;;;;;;;5037555;28;20060;-88
2021/12/02 07:33:13;;;;;;;2.92;1.88;;;;;;;;;;5037031;28;20024;-88
2021/12/02 07:35:38;;;;;;;3.88;1.70;;;;;;;;;;5054668;28;20041;-88
2021/12/02 07:38:03;;;;;;;2.35;1.52;;;;;;;;;;5037090;28;20037;-88
2021/12/02 07:40:29;;;;;;;2.28;1.50;;;;;;;;;;5037532;28;20056;-88
2021/12/02 07:42:54;;;;;;;3.97;2.45;;;;;;;;;;5055569;28;20424;-88
2021/12/02 07:45:20;;;;;;;2.72;1.73;;;;;;;;;;5037236;28;20041;-88
2021/12/02 07:47:45;;;;;;;2.05;1.45;;;;;;;;;;5054909;28;20029;-88
2021/12/02 07:50:15;;;;;;;2.08;1.30;;;;;;;;;;5054245;28;20471;-89
2021/12/02 07:52:40;;;;;;;1.95;1.10;;;;;;;;;;5053466;28;20029;-89
2021/12/02 07:55:07;;;;;;;3.00;1.38;;;;;;;;;;5053424;28;20067;-89
2021/12/02 07:57:32;;;;;;;10.18;1.88;;;;;;;;;;5038185;28;20036;-89
2021/12/02 07:59:58;;;;;;;2.42;1.55;;;;;;;;;;5055282;28;20033;-89
2021/12/02 08:02:23;;;;;;;2.78;1.30;;;;;;;;;;5043042;28;20124;-89
2021/12/02 08:04:48;;;;;;;1.30;0.70;;;;;;;;;;5039447;28;20067;-87
2021/12/02 08:07:14;;;;;;;1.13;0.65;;;;;;;;;;5057746;28;20064;-88
2021/12/02 08:09:39;;;;;;;0.63;0.50;;;;;;;;;;5041942;28;20075;-88
2021/12/02 08:12:04;;;;;;;1.30;0.60;;;;;;;;;;5037730;28;20037;-88
2021/12/02 08:14:30;;;;;;;0.95;0.60;;;;;;;;;;5037581;28;20437;-89
2021/12/02 08:16:55;;;;;;;1.38;0.65;;;;;;;;;;5020264;28;20029;-89
2021/12/02 08:19:21;;;;;;;0.73;0.40;;;;;;;;;;5054155;28;20013;-89
2021/12/02 08:21:46;;;;;;;1.60;0.40;;;;;;;;;;5059032;28;20025;-89
2021/12/02 08:24:11;;;;;;;0.70;0.60;;;;;;;;;;5058966;28;20033;-88
2021/12/02 08:26:37;;;;;;;1.20;0.60;;;;;;;;;;5059597;28;20040;-88
2021/12/02 08:29:02;;;;;;;1.27;0.70;;;;;;;;;;5059812;28;20055;-88
2021/12/02 08:31:27;;;;;;;1.25;0.70;;;;;;;;;;5058707;28;20123;-89
2021/12/02 08:33:54;;;;;;;0.82;0.52;;;;;;;;;;5059184;28;20087;-88
2021/12/02 08:36:22;;;;;;;1.63;0.60;;;;;;;;;;5057554;28;20029;-89
2021/12/02 08:38:49;;;;;;;1.55;0.60;;;;;;;;;;5059440;28;20044;-89
2021/12/02 08:41:17;;;;;;;1.40;0.60;;;;;;;;;;5058692;28;20059;-88
2021/12/02 08:43:43;;;;;;;1.00;0.60;;;;;;;;;;5059650;28;20075;-88
2021/12/02 08:46:08;;;;;;;2.88;0.60;;;;;;;;;;5058435;28;20041;-88
2021/12/02 08:48:33;;;;;;;0.77;0.50;;;;;;;;;;5059271;28;20040;-88
2021/12/02 08:50:59;;;;;;;1.30;0.50;;;;;;;;;;5059838;28;20037;-87
2021/12/02 08:53:24;;;;;;;1.20;0.40;;;;;;;;;;5059841;28;20036;-88
2021/12/02 08:55:49;;;;;;;1.88;0.45;;;;;;;;;;5057353;28;20051;-88
2021/12/02 08:58:15;;;;;;;0.50;0.40;;;;;;;;;;5057336;28;20046;-88
2021/12/02 09:00:40;;;;;;;2.25;0.40;;;;;;;;;;5058829;28;20083;-87
2021/12/02 09:03:05;;;;;;;0.40;0.40;;;;;;;;;;5058366;28;20523;-87
2021/12/02 09:05:31;;;;;;;0.73;0.50;;;;;;;;;;5041445;28;20020;-89
2021/12/02 09:07:56;;;;;;;1.17;0.50;;;;;;;;;;5035505;28;20378;-89
2021/12/02 09:10:22;;;;;;;0.80;0.47;;;;;;;;;;5036034;28;20048;-90
2021/12/02 09:12:47;;;;;;;2.33;0.70;;;;;;;;;;5044699;28;20037;-89
2021/12/02 09:15:12;;;;;;;1.67;0.60;;;;;;;;;;5039596;28;20560;-89
2021/12/02 09:17:38;;;;;;;0.98;0.50;;;;;;;;;;5057478;28;20033;-89
2021/12/02 09:20:03;;;;;;;0.55;0.50;;;;;;;;;;5055407;28;20535;-88
2021/12/02 09:22:28;;;;;;;0.85;0.52;;;;;;;;;;5056671;28;20037;-89
2021/12/02 09:24:54;;;;;;;1.10;0.60;;;;;;;;;;5054782;28;20051;-88
2021/12/02 09:27:19;;;;;;;1.10;0.60;;;;;;;;;;5039713;28;20036;-89
2021/12/02 09:29:44;;;;;;;1.05;0.43;;;;;;;;;;5039399;28;20463;-88
2021/12/02 09:32:11;;;;;;;0.90;0.70;;;;;;;;;;5057587;28;20104;-89
2021/12/02 09:34:36;;;;;;;2.60;0.70;;;;;;;;;;5039212;28;20551;-89
2021/12/02 09:37:02;;;;;;;1.05;0.70;;;;;;;;;;5055476;28;20120;-89
2021/12/02 09:39:32;;;;;;;1.73;0.57;;;;;;;;;;5055551;28;20492;-89
2021/12/02 09:41:57;;;;;;;1.08;0.50;;;;;;;;;;5056718;28;20056;-89
2021/12/02 09:44:23;;;;;;;0.90;0.57;;;;;;;;;;5056833;28;20404;-89
2021/12/02 09:46:48;;;;;;;0.82;0.60;;;;;;;;;;5039705;28;20043;-89
2021/12/02 09:49:14;;;;;;;0.47;0.47;;;;;;;;;;5039211;28;20025;-89
2021/12/02 09:51:59;;;;;;;1.20;0.50;;;;;;;;;;5039340;28;20037;-89
2021/12/02 09:54:38;;;;;;;1.42;0.70;;;;;;;;;;5040733;28;20036;-88
2021/12/02 09:57:06;;;;;;;1.55;0.40;;;;;;;;;;5056812;28;20517;-89
2021/12/02 09:59:45;;;;;;;0.70;0.43;;;;;;;;;;5056894;28;20029;-89
2021/12/02 10:02:14;;;;;;;0.73;0.50;;;;;;;;;;5058867;28;20451;-88
2021/12/02 10:04:43;;;;;;;0.68;0.50;;;;;;;;;;5045636;28;20124;-89
2021/12/02 10:07:10;;;;;;;0.98;0.50;;;;;;;;;;5037423;28;20535;-90
2021/12/02 10:09:49;;;;;;;1.25;0.60;;;;;;;;;;5036683;28;20025;-88
2021/12/02 10:12:18;;;;;;;2.55;0.82;;;;;;;;;;5049787;28;20032;-88
2021/12/02 10:14:45;;;;;;;1.25;0.50;;;;;;;;;;5057090;28;20037;-88
2021/12/02 10:17:13;;;;;;;1.38;0.60;;;;;;;;;;5057923;28;20037;-89
2021/12/02 10:19:38;;;;;;;0.80;0.60;;;;;;;;;;5057106;28;20048;-90
2021/12/02 10:22:08;;;;;;;1.55;0.57;;;;;;;;;;5058102;28;20033;-88
2021/12/02 10:24:33;;;;;;;0.45;0.45;;;;;;;;;;5058414;28;20028;-91
2021/12/02 10:26:59;;;;;;;1.20;0.50;;;;;;;;;;5060280;28;20036;-91
2021/12/02 10:29:24;;;;;;;0.70;0.52;;;;;;;;;;5054659;28;20151;-90
2021/12/02 10:31:50;;;;;;;1.13;0.60;;;;;;;;;;5055982;28;20037;-90
2021/12/02 10:34:15;;;;;;;0.93;0.40;;;;;;;;;;5033444;28;20066;-90
2021/12/02 10:36:43;;;;;;;1.15;0.60;;;;;;;;;;5026542;28;20033;-90
2021/12/02 10:39:08;;;;;;;1.00;0.60;;;;;;;;;;5059588;28;20059;-90
2021/12/02 10:41:33;;;;;;;0.80;0.45;;;;;;;;;;5057185;28;20384;-90
2021/12/02 10:43:59;;;;;;;0.68;0.60;;;;;;;;;;5058312;28;20448;-90
2021/12/02 10:46:24;;;;;;;1.52;0.63;;;;;;;;;;5058960;28;20039;-89
2021/12/02 10:48:49;;;;;;;0.70;0.43;;;;;;;;;;5059209;28;20127;-88
2021/12/02 10:51:15;;;;;;;1.08;0.60;;;;;;;;;;5058540;28;20040;-88
2021/12/02 10:53:40;;;;;;;0.85;0.50;;;;;;;;;;5059502;28;20044;-88
2021/12/02 10:56:10;;;;;;;0.77;0.50;;;;;;;;;;5057724;28;20045;-90
2021/12/02 10:58:35;;;;;;;0.95;0.50;;;;;;;;;;5058800;28;20511;-89
2021/12/02 11:01:01;;;;;;;0.68;0.50;;;;;;;;;;5058269;28;20040;-89
2021/12/02 11:03:26;;;;;;;2.80;0.57;;;;;;;;;;5057930;28;20124;-89
2021/12/02 11:05:51;;;;;;;1.05;0.63;;;;;;;;;;5057258;28;20072;-88
2021/12/02 11:08:18;;;;;;;0.90;0.68;;;;;;;;;;5060179;28;20032;-89
2021/12/02 11:10:43;;;;;;;0.82;0.47;;;;;;;;;;5057569;28;20029;-89
2021/12/02 11:13:08;;;;;;;2.33;0.60;;;;;;;;;;5059335;28;20047;-89
2021/12/02 11:15:34;;;;;;;2.15;0.50;;;;;;;;;;5056137;28;20040;-89
2021/12/02 11:17:59;;;;;;;4.35;0.70;;;;;;;;;;5057425;28;20041;-89
2021/12/02 11:20:25;;;;;;;1.67;0.68;;;;;;;;;;5056445;28;20025;-89
2021/12/02 11:22:50;;;;;;;0.43;0.32;;;;;;;;;;5056386;28;20043;-90
2021/12/02 11:25:18;;;;;;;1.20;0.60;;;;;;;;;;5054516;28;20064;-90
2021/12/02 11:27:43;;;;;;;1.85;0.50;;;;;;;;;;5054947;28;20032;-90
2021/12/02 11:30:09;;;;;;;0.50;0.50;;;;;;;;;;5055635;28;20535;-90
2021/12/02 11:32:34;;;;;;;1.08;0.43;;;;;;;;;;5056503;28;20133;-90
2021/12/02 11:35:00;;;;;;;0.85;0.50;;;;;;;;;;5055787;28;20102;-89
2021/12/02 11:37:25;;;;;;;3.38;0.50;;;;;;;;;;5056449;28;20470;-89
2021/12/02 11:39:50;;;;;;;1.23;0.55;;;;;;;;;;5057675;28;20028;-89
2021/12/02 11:42:16;;;;;;;1.05;0.50;;;;;;;;;;5060748;28;20033;-89
2021/12/02 11:44:41;;;;;;;0.50;0.32;;;;;;;;;;5060470;28;20059;-87
2021/12/02 11:47:06;;;;;;;1.73;0.50;;;;;;;;;;5061032;28;20072;-87
2021/12/02 11:49:32;;;;;;;1.33;0.50;;;;;;;;;;5062733;28;20056;-87
2021/12/02 11:51:57;;;;;;;1.80;0.60;;;;;;;;;;5063630;28;20111;-87
2021/12/02 11:54:23;;;;;;;1.30;0.40;;;;;;;;;;5061899;28;20080;-87
2021/12/02 11:56:48;;;;;;;1.38;0.50;;;;;;;;;;5062311;28;20048;-87
2021/12/02 11:59:15;;;;;;;0.98;0.57;;;;;;;;;;5062886;28;20050;-87
2021/12/02 12:01:42;;;;;;;1.02;0.30;;;;;;;;;;5061726;28;20039;-87
2021/12/02 12:04:08;;;;;;;1.17;0.60;;;;;;;;;;5044976;28;20036;-87
2021/12/02 12:06:34;;;;;;;1.40;0.68;;;;;;;;;;5044515;28;20040;-88
2021/12/02 12:08:59;;;;;;;0.90;0.45;;;;;;;;;;5061145;28;20021;-87
2021/12/02 12:11:25;;;;;;;1.42;0.50;;;;;;;;;;5061753;28;20489;-87
2021/12/02 12:13:50;;;;;;;0.73;0.50;;;;;;;;;;5063231;28;20037;-87
2021/12/02 12:16:15;;;;;;;1.73;0.90;;;;;;;;;;5062106;28;20477;-88
2021/12/02 12:18:41;;;;;;;6.22;3.20;;;;;;;;;;5063016;28;20043;-88
2021/12/02 12:21:06;;;;;;;1.50;0.50;;;;;;;;;;5062655;28;20036;-87
2021/12/02 12:23:32;;;;;;;1.33;0.52;;;;;;;;;;5045424;28;20503;-87
2021/12/02 12:25:57;;;;;;;2.45;0.65;;;;;;;;;;5059590;28;20036;-87
2021/12/02 12:28:22;;;;;;;1.60;0.52;;;;;;;;;;5043072;28;20039;-87
2021/12/02 12:30:48;;;;;;;1.75;0.50;;;;;;;;;;5059471;28;20053;-87
2021/12/02 12:33:18;;;;;;;1.52;0.65;;;;;;;;;;5059757;28;20057;-87
2021/12/02 12:38:22;;;;;;;2.50;0.60;;;;;;;;;;5059879;28;20041;-86
2021/12/02 12:40:48;;;;;;;1.75;0.60;;;;;;;;;;5059608;28;20029;-87
2021/12/02 12:43:14;;;;;;;1.23;0.60;;;;;;;;;;5061062;28;20112;-86
2021/12/02 12:45:41;;;;;;;3.28;0.60;;;;;;;;;;5067537;28;20041;-86
2021/12/02 12:48:07;;;;;;;2.00;0.60;;;;;;;;;;5075171;28;20071;-85
2021/12/02 12:50:32;;;;;;;3.25;0.70;;;;;;;;;;5074822;28;20053;-85
2021/12/02 12:52:57;;;;;;;1.25;0.57;;;;;;;;;;5069540;28;20029;-89
2021/12/02 12:55:23;;;;;;;2.10;0.60;;;;;;;;;;5065885;28;20028;-88
2021/12/02 12:57:48;;;;;;;2.38;0.70;;;;;;;;;;5061989;28;20485;-89
2021/12/02 13:00:13;;;;;;;4.05;0.70;;;;;;;;;;5061591;28;20029;-88
2021/12/02 13:02:39;;;;;;;2.13;0.70;;;;;;;;;;5060518;28;20373;-86
2021/12/02 13:05:04;;;;;;;2.35;0.77;;;;;;;;;;5058832;28;20036;-88
2021/12/02 13:07:29;;;;;;;1.95;0.60;;;;;;;;;;5060528;28;20040;-88
2021/12/02 13:09:57;;;;;;;2.72;0.60;;;;;;;;;;5043585;28;20056;-88
2021/12/02 13:12:23;;;;;;;3.17;0.70;;;;;;;;;;5059914;28;20412;-88
2021/12/02 13:14:48;;;;;;;1.42;0.60;;;;;;;;;;5059890;28;20044;-86
2021/12/02 13:17:13;;;;;;;1.27;0.40;;;;;;;;;;5058792;28;20037;-86
2021/12/02 13:19:39;;;;;;;1.98;0.60;;;;;;;;;;5041751;28;20036;-87
2021/12/02 13:22:04;;;;;;;1.45;0.60;;;;;;;;;;5057262;28;20032;-87
2021/12/02 13:24:30;;;;;;;1.35;0.47;;;;;;;;;;5058017;28;20048;-86
2021/12/02 13:26:55;;;;;;;2.50;1.35;;;;;;;;;;5058759;28;20084;-86
2021/12/02 13:29:23;;;;;;;2.88;1.42;;;;;;;;;;5059201;28;20105;-87
2021/12/02 13:31:49;;;;;;;2.45;1.10;;;;;;;;;;5059390;28;20081;-87
2021/12/02 13:34:14;;;;;;;2.63;1.00;;;;;;;;;;5056929;28;20029;-87
2021/12/02 13:36:40;;;;;;;2.42;0.85;;;;;;;;;;5058378;28;20041;-85
2021/12/02 13:39:05;;;;;;;2.67;1.30;;;;;;;;;;5059392;28;20083;-87
2021/12/02 13:41:30;;;;;;;4.75;2.28;;;;;;;;;;5059346;28;20029;-86
2021/12/02 13:44:00;;;;;;;4.65;1.92;;;;;;;;;;5059218;28;20084;-87
2021/12/02 13:46:25;;;;;;;1.02;0.80;;;;;;;;;;5057035;28;20039;-88
2021/12/02 13:48:50;;;;;;;4.97;1.65;;;;;;;;;;5057528;28;20037;-86
2021/12/02 13:54:00;;;;;;;2.78;1.17;;;;;;;;;;5058249;28;20032;-88
2021/12/02 13:56:25;;;;;;;3.45;0.95;;;;;;;;;;5057824;28;20025;-88
2021/12/02 13:58:51;;;;;;;2.25;1.00;;;;;;;;;;5057484;28;20072;-87
2021/12/02 14:01:16;;;;;;;1.38;1.00;;;;;;;;;;5058116;28;20082;-88
2021/12/02 14:03:41;;;;;;;2.50;1.10;;;;;;;;;;5058336;28;20044;-86
2021/12/02 14:06:08;;;;;;;5.88;2.03;;;;;;;;;;5040464;28;20118;-88
2021/12/02 14:08:37;;;;;;;3.33;0.90;;;;;;;;;;5058888;28;20033;-87
2021/12/02 14:11:02;;;;;;;3.22;0.77;;;;;;;;;;5057042;28;20055;-86
2021/12/02 14:13:29;;;;;;;0.98;0.60;;;;;;;;;;5040034;28;20037;-87
2021/12/02 14:15:57;;;;;;;1.30;0.50;;;;;;;;;;5056167;28;20033;-87
2021/12/02 14:18:23;;;;;;;0.90;0.77;;;;;;;;;;5036672;28;20029;-86
2021/12/02 14:20:50;;;;;;;0.85;0.50;;;;;;;;;;5037257;28;20033;-87
2021/12/02 14:23:15;;;;;;;1.80;0.40;;;;;;;;;;5038061;28;20112;-86
2021/12/02 14:25:41;;;;;;;0.98;0.50;;;;;;;;;;5051225;28;20525;-86
2021/12/02 14:28:06;;;;;;;0.82;0.43;;;;;;;;;;5058506;28;20110;-86
2021/12/02 14:30:31;;;;;;;1.30;0.40;;;;;;;;;;5057490;28;20055;-87
2021/12/02 14:32:57;;;;;;;2.22;0.50;;;;;;;;;;5057884;28;20040;-87
2021/12/02 14:35:22;;;;;;;1.67;0.70;;;;;;;;;;5033099;28;20060;-87
2021/12/02 14:37:48;;;;;;;0.93;0.50;;;;;;;;;;5037137;28;20034;-86
2021/12/02 14:40:13;;;;;;;2.70;0.60;;;;;;;;;;5036404;28;20064;-87
2021/12/02 14:42:38;;;;;;;0.80;0.52;;;;;;;;;;5038077;28;20452;-85
2021/12/02 14:45:04;;;;;;;1.08;0.52;;;;;;;;;;5037899;28;20537;-87
2021/12/02 14:47:29;;;;;;;1.95;0.60;;;;;;;;;;5036956;28;20064;-87
2021/12/02 14:49:56;;;;;;;1.42;0.60;;;;;;;;;;5037774;28;20107;-87
2021/12/02 14:52:24;;;;;;;1.02;0.47;;;;;;;;;;5037675;28;20052;-87